sensor_id;sensor_type;location;lat;lon;timestamp;P1;durP1;ratioP1;P2;durP2;ratioP2
21243;SDS011;10780;50.942;4.028;2023-03-08T00:01:33;17.65;;;11.20;;
21243;SDS011;10780;50.942;4.028;2023-03-08T00:03:59;16.48;;;11.43;;
21243;SDS011;10780;50.942;4.028;2023-03-08T00:06:25;18.00;;;10.88;;
21243;SDS011;10780;50.942;4.028;2023-03-08T00:08:58;16.75;;;10.85;;
21243;SDS011;10780;50.942;4.028;2023-03-08T00:11:25;18.98;;;11.65;;
21243;SDS011;10780;50.942;4.028;2023-03-08T00:13:51;19.67;;;11.98;;
21243;SDS011;10780;50.942;4.028;2023-03-08T00:16:19;16.85;;;11.35;;
21243;SDS011;10780;50.942;4.028;2023-03-08T00:18:44;17.38;;;11.98;;
21243;SDS011;10780;50.942;4.028;2023-03-08T00:21:11;16.98;;;10.82;;
21243;SDS011;10780;50.942;4.028;2023-03-08T00:23:38;15.90;;;10.63;;
21243;SDS011;10780;50.942;4.028;2023-03-08T00:26:05;16.98;;;10.93;;
21243;SDS011;10780;50.942;4.028;2023-03-08T00:28:31;17.95;;;11.07;;
21243;SDS011;10780;50.942;4.028;2023-03-08T00:30:57;16.67;;;10.88;;
21243;SDS011;10780;50.942;4.028;2023-03-08T00:33:24;16.70;;;10.38;;
21243;SDS011;10780;50.942;4.028;2023-03-08T00:35:54;16.83;;;10.30;;
21243;SDS011;10780;50.942;4.028;2023-03-08T00:38:24;14.18;;;10.05;;
21243;SDS011;10780;50.942;4.028;2023-03-08T00:40:49;16.08;;;9.82;;
21243;SDS011;10780;50.942;4.028;2023-03-08T00:43:15;16.13;;;9.90;;
21243;SDS011;10780;50.942;4.028;2023-03-08T00:45:41;16.48;;;9.95;;
21243;SDS011;10780;50.942;4.028;2023-03-08T00:48:06;17.15;;;9.68;;
21243;SDS011;10780;50.942;4.028;2023-03-08T00:50:32;14.25;;;9.15;;
21243;SDS011;10780;50.942;4.028;2023-03-08T00:52:58;16.25;;;9.80;;
21243;SDS011;10780;50.942;4.028;2023-03-08T00:55:24;13.55;;;8.77;;
21243;SDS011;10780;50.942;4.028;2023-03-08T00:57:49;14.38;;;9.20;;
21243;SDS011;10780;50.942;4.028;2023-03-08T01:00:16;13.90;;;8.88;;
21243;SDS011;10780;50.942;4.028;2023-03-08T01:02:41;13.45;;;8.82;;
21243;SDS011;10780;50.942;4.028;2023-03-08T01:05:07;13.82;;;9.18;;
21243;SDS011;10780;50.942;4.028;2023-03-08T01:07:34;14.45;;;9.45;;
21243;SDS011;10780;50.942;4.028;2023-03-08T01:09:59;14.20;;;9.10;;
21243;SDS011;10780;50.942;4.028;2023-03-08T01:12:25;13.70;;;8.57;;
21243;SDS011;10780;50.942;4.028;2023-03-08T01:14:51;14.10;;;9.77;;
21243;SDS011;10780;50.942;4.028;2023-03-08T01:17:17;16.55;;;8.77;;
21243;SDS011;10780;50.942;4.028;2023-03-08T01:19:43;14.50;;;9.55;;
21243;SDS011;10780;50.942;4.028;2023-03-08T01:22:09;14.18;;;9.25;;
21243;SDS011;10780;50.942;4.028;2023-03-08T01:24:35;14.45;;;9.25;;
21243;SDS011;10780;50.942;4.028;2023-03-08T01:27:01;16.00;;;10.00;;
21243;SDS011;10780;50.942;4.028;2023-03-08T01:29:27;16.20;;;9.55;;
21243;SDS011;10780;50.942;4.028;2023-03-08T01:31:53;14.93;;;9.65;;
21243;SDS011;10780;50.942;4.028;2023-03-08T01:34:19;15.18;;;9.07;;
21243;SDS011;10780;50.942;4.028;2023-03-08T01:36:44;16.45;;;9.75;;
21243;SDS011;10780;50.942;4.028;2023-03-08T01:39:10;15.63;;;9.65;;
21243;SDS011;10780;50.942;4.028;2023-03-08T01:41:36;13.95;;;9.02;;
21243;SDS011;10780;50.942;4.028;2023-03-08T01:44:01;17.15;;;9.93;;
21243;SDS011;10780;50.942;4.028;2023-03-08T01:46:31;13.40;;;8.95;;
21243;SDS011;10780;50.942;4.028;2023-03-08T01:51:43;15.18;;;9.77;;
21243;SDS011;10780;50.942;4.028;2023-03-08T01:54:20;13.80;;;9.40;;
21243;SDS011;10780;50.942;4.028;2023-03-08T01:56:50;14.27;;;9.30;;
21243;SDS011;10780;50.942;4.028;2023-03-08T01:59:19;14.38;;;8.75;;
21243;SDS011;10780;50.942;4.028;2023-03-08T02:01:46;15.05;;;8.95;;
21243;SDS011;10780;50.942;4.028;2023-03-08T02:04:13;14.05;;;9.27;;
21243;SDS011;10780;50.942;4.028;2023-03-08T02:06:39;16.25;;;9.60;;
21243;SDS011;10780;50.942;4.028;2023-03-08T02:09:06;13.98;;;9.13;;
21243;SDS011;10780;50.942;4.028;2023-03-08T02:11:33;13.88;;;8.90;;
21243;SDS011;10780;50.942;4.028;2023-03-08T02:14:01;15.52;;;9.23;;
21243;SDS011;10780;50.942;4.028;2023-03-08T02:16:27;13.77;;;8.52;;
21243;SDS011;10780;50.942;4.028;2023-03-08T02:18:58;15.27;;;9.07;;
21243;SDS011;10780;50.942;4.028;2023-03-08T02:21:29;13.40;;;9.02;;
21243;SDS011;10780;50.942;4.028;2023-03-08T02:24:01;14.02;;;8.25;;
21243;SDS011;10780;50.942;4.028;2023-03-08T02:26:31;13.25;;;8.45;;
21243;SDS011;10780;50.942;4.028;2023-03-08T02:28:57;12.70;;;8.40;;
21243;SDS011;10780;50.942;4.028;2023-03-08T02:31:23;14.30;;;8.38;;
21243;SDS011;10780;50.942;4.028;2023-03-08T02:33:48;13.48;;;8.30;;
21243;SDS011;10780;50.942;4.028;2023-03-08T02:36:14;12.55;;;8.02;;
21243;SDS011;10780;50.942;4.028;2023-03-08T02:38:40;13.85;;;8.00;;
21243;SDS011;10780;50.942;4.028;2023-03-08T02:41:05;14.95;;;8.88;;
21243;SDS011;10780;50.942;4.028;2023-03-08T02:43:31;14.88;;;8.88;;
21243;SDS011;10780;50.942;4.028;2023-03-08T02:45:57;13.25;;;8.18;;
21243;SDS011;10780;50.942;4.028;2023-03-08T02:48:22;13.77;;;7.78;;
21243;SDS011;10780;50.942;4.028;2023-03-08T02:50:48;12.00;;;6.95;;
21243;SDS011;10780;50.942;4.028;2023-03-08T02:53:14;12.27;;;7.35;;
21243;SDS011;10780;50.942;4.028;2023-03-08T02:55:39;11.20;;;6.97;;
21243;SDS011;10780;50.942;4.028;2023-03-08T02:58:05;13.43;;;7.57;;
21243;SDS011;10780;50.942;4.028;2023-03-08T03:00:32;11.85;;;6.32;;
21243;SDS011;10780;50.942;4.028;2023-03-08T03:02:58;11.65;;;6.85;;
21243;SDS011;10780;50.942;4.028;2023-03-08T03:05:24;12.30;;;5.85;;
21243;SDS011;10780;50.942;4.028;2023-03-08T03:07:50;9.45;;;5.25;;
21243;SDS011;10780;50.942;4.028;2023-03-08T03:10:15;12.32;;;6.78;;
21243;SDS011;10780;50.942;4.028;2023-03-08T03:12:41;12.07;;;6.10;;
21243;SDS011;10780;50.942;4.028;2023-03-08T03:15:08;12.50;;;6.60;;
21243;SDS011;10780;50.942;4.028;2023-03-08T03:17:34;12.00;;;6.80;;
21243;SDS011;10780;50.942;4.028;2023-03-08T03:20:04;11.40;;;6.22;;
21243;SDS011;10780;50.942;4.028;2023-03-08T03:22:33;10.25;;;6.28;;
21243;SDS011;10780;50.942;4.028;2023-03-08T03:24:59;11.82;;;6.63;;
21243;SDS011;10780;50.942;4.028;2023-03-08T03:27:24;13.93;;;6.80;;
21243;SDS011;10780;50.942;4.028;2023-03-08T03:29:50;12.80;;;6.40;;
21243;SDS011;10780;50.942;4.028;2023-03-08T03:32:16;11.30;;;6.28;;
21243;SDS011;10780;50.942;4.028;2023-03-08T03:34:41;9.77;;;6.50;;
21243;SDS011;10780;50.942;4.028;2023-03-08T03:37:07;12.10;;;6.90;;
21243;SDS011;10780;50.942;4.028;2023-03-08T03:39:36;10.15;;;6.00;;
21243;SDS011;10780;50.942;4.028;2023-03-08T03:42:03;10.70;;;5.93;;
21243;SDS011;10780;50.942;4.028;2023-03-08T03:44:29;8.77;;;5.57;;
21243;SDS011;10780;50.942;4.028;2023-03-08T03:46:55;9.20;;;6.20;;
21243;SDS011;10780;50.942;4.028;2023-03-08T03:49:21;10.57;;;5.60;;
21243;SDS011;10780;50.942;4.028;2023-03-08T03:51:47;8.32;;;4.95;;
21243;SDS011;10780;50.942;4.028;2023-03-08T03:54:12;9.20;;;5.13;;
21243;SDS011;10780;50.942;4.028;2023-03-08T03:56:38;9.60;;;4.82;;
21243;SDS011;10780;50.942;4.028;2023-03-08T03:59:04;12.20;;;5.07;;
21243;SDS011;10780;50.942;4.028;2023-03-08T04:01:30;9.23;;;5.30;;
21243;SDS011;10780;50.942;4.028;2023-03-08T04:03:57;11.25;;;5.57;;
21243;SDS011;10780;50.942;4.028;2023-03-08T04:06:27;8.07;;;5.13;;
21243;SDS011;10780;50.942;4.028;2023-03-08T04:08:55;10.55;;;5.38;;
21243;SDS011;10780;50.942;4.028;2023-03-08T04:11:23;9.30;;;5.63;;
21243;SDS011;10780;50.942;4.028;2023-03-08T04:13:50;8.80;;;5.53;;
21243;SDS011;10780;50.942;4.028;2023-03-08T04:16:21;11.30;;;6.35;;
21243;SDS011;10780;50.942;4.028;2023-03-08T04:18:51;9.35;;;5.82;;
21243;SDS011;10780;50.942;4.028;2023-03-08T04:21:18;8.45;;;5.60;;
21243;SDS011;10780;50.942;4.028;2023-03-08T04:23:43;10.35;;;6.63;;
21243;SDS011;10780;50.942;4.028;2023-03-08T04:26:09;11.00;;;6.90;;
21243;SDS011;10780;50.942;4.028;2023-03-08T04:28:35;12.02;;;6.47;;
21243;SDS011;10780;50.942;4.028;2023-03-08T04:31:11;10.27;;;6.50;;
21243;SDS011;10780;50.942;4.028;2023-03-08T04:33:36;10.32;;;6.13;;
21243;SDS011;10780;50.942;4.028;2023-03-08T04:36:02;10.68;;;5.97;;
21243;SDS011;10780;50.942;4.028;2023-03-08T04:38:28;11.05;;;6.63;;
21243;SDS011;10780;50.942;4.028;2023-03-08T04:40:53;11.32;;;6.68;;
21243;SDS011;10780;50.942;4.028;2023-03-08T04:43:36;11.45;;;6.85;;
21243;SDS011;10780;50.942;4.028;2023-03-08T04:46:12;12.23;;;6.90;;
21243;SDS011;10780;50.942;4.028;2023-03-08T04:48:38;12.75;;;6.97;;
21243;SDS011;10780;50.942;4.028;2023-03-08T04:51:04;13.95;;;6.82;;
21243;SDS011;10780;50.942;4.028;2023-03-08T04:53:32;10.50;;;6.50;;
21243;SDS011;10780;50.942;4.028;2023-03-08T04:55:59;11.50;;;7.45;;
21243;SDS011;10780;50.942;4.028;2023-03-08T04:58:25;11.43;;;7.15;;
21243;SDS011;10780;50.942;4.028;2023-03-08T05:00:52;12.98;;;7.55;;
21243;SDS011;10780;50.942;4.028;2023-03-08T05:03:18;12.20;;;7.82;;
21243;SDS011;10780;50.942;4.028;2023-03-08T05:05:45;9.88;;;6.75;;
21243;SDS011;10780;50.942;4.028;2023-03-08T05:08:15;11.82;;;7.53;;
21243;SDS011;10780;50.942;4.028;2023-03-08T05:11:15;9.63;;;6.38;;
21243;SDS011;10780;50.942;4.028;2023-03-08T05:13:36;12.13;;;6.63;;
21243;SDS011;10780;50.942;4.028;2023-03-08T05:16:03;12.07;;;7.05;;
21243;SDS011;10780;50.942;4.028;2023-03-08T05:18:30;11.25;;;6.30;;
21243;SDS011;10780;50.942;4.028;2023-03-08T05:20:57;12.43;;;6.65;;
21243;SDS011;10780;50.942;4.028;2023-03-08T05:23:25;11.48;;;6.43;;
21243;SDS011;10780;50.942;4.028;2023-03-08T05:25:53;10.13;;;5.97;;
21243;SDS011;10780;50.942;4.028;2023-03-08T05:28:23;9.80;;;6.07;;
21243;SDS011;10780;50.942;4.028;2023-03-08T05:30:55;7.68;;;5.63;;
21243;SDS011;10780;50.942;4.028;2023-03-08T05:33:45;10.23;;;5.88;;
21243;SDS011;10780;50.942;4.028;2023-03-08T05:36:14;7.38;;;4.75;;
21243;SDS011;10780;50.942;4.028;2023-03-08T05:38:41;7.75;;;4.68;;
21243;SDS011;10780;50.942;4.028;2023-03-08T05:41:07;8.10;;;4.93;;
21243;SDS011;10780;50.942;4.028;2023-03-08T05:43:36;6.75;;;4.10;;
21243;SDS011;10780;50.942;4.028;2023-03-08T05:46:03;7.53;;;4.97;;
21243;SDS011;10780;50.942;4.028;2023-03-08T05:48:32;7.07;;;4.30;;
21243;SDS011;10780;50.942;4.028;2023-03-08T05:51:03;7.38;;;4.38;;
21243;SDS011;10780;50.942;4.028;2023-03-08T05:53:33;6.38;;;4.28;;
21243;SDS011;10780;50.942;4.028;2023-03-08T05:56:12;5.95;;;4.03;;
21243;SDS011;10780;50.942;4.028;2023-03-08T05:58:39;6.20;;;3.58;;
21243;SDS011;10780;50.942;4.028;2023-03-08T06:03:35;6.65;;;3.70;;
21243;SDS011;10780;50.942;4.028;2023-03-08T06:06:01;6.80;;;4.30;;
21243;SDS011;10780;50.942;4.028;2023-03-08T06:08:26;6.57;;;3.95;;
21243;SDS011;10780;50.942;4.028;2023-03-08T06:10:52;6.20;;;4.10;;
21243;SDS011;10780;50.942;4.028;2023-03-08T06:13:17;5.38;;;4.07;;
21243;SDS011;10780;50.942;4.028;2023-03-08T06:15:43;6.90;;;4.50;;
21243;SDS011;10780;50.942;4.028;2023-03-08T06:18:08;5.72;;;4.05;;
21243;SDS011;10780;50.942;4.028;2023-03-08T06:20:34;6.10;;;4.10;;
21243;SDS011;10780;50.942;4.028;2023-03-08T06:23:00;4.78;;;4.05;;
21243;SDS011;10780;50.942;4.028;2023-03-08T06:25:25;6.03;;;4.32;;
21243;SDS011;10780;50.942;4.028;2023-03-08T06:27:51;5.50;;;4.15;;
21243;SDS011;10780;50.942;4.028;2023-03-08T06:30:16;6.15;;;4.45;;
21243;SDS011;10780;50.942;4.028;2023-03-08T06:32:42;7.78;;;5.20;;
21243;SDS011;10780;50.942;4.028;2023-03-08T06:35:08;6.38;;;4.20;;
21243;SDS011;10780;50.942;4.028;2023-03-08T06:37:34;6.60;;;4.55;;
21243;SDS011;10780;50.942;4.028;2023-03-08T06:40:00;7.43;;;4.93;;
21243;SDS011;10780;50.942;4.028;2023-03-08T06:42:27;8.38;;;5.55;;
21243;SDS011;10780;50.942;4.028;2023-03-08T06:44:53;7.57;;;4.80;;
21243;SDS011;10780;50.942;4.028;2023-03-08T06:47:18;7.72;;;4.63;;
21243;SDS011;10780;50.942;4.028;2023-03-08T06:49:44;7.38;;;5.22;;
21243;SDS011;10780;50.942;4.028;2023-03-08T06:52:10;8.95;;;5.07;;
21243;SDS011;10780;50.942;4.028;2023-03-08T06:54:35;7.32;;;5.25;;
21243;SDS011;10780;50.942;4.028;2023-03-08T06:57:01;7.43;;;4.90;;
21243;SDS011;10780;50.942;4.028;2023-03-08T06:59:26;7.32;;;4.80;;
21243;SDS011;10780;50.942;4.028;2023-03-08T07:01:52;6.22;;;4.97;;
21243;SDS011;10780;50.942;4.028;2023-03-08T07:04:17;11.38;;;5.57;;
21243;SDS011;10780;50.942;4.028;2023-03-08T07:06:43;8.75;;;5.85;;
21243;SDS011;10780;50.942;4.028;2023-03-08T07:09:09;7.82;;;5.93;;
21243;SDS011;10780;50.942;4.028;2023-03-08T07:11:34;7.07;;;5.15;;
21243;SDS011;10780;50.942;4.028;2023-03-08T07:14:00;7.80;;;5.10;;
21243;SDS011;10780;50.942;4.028;2023-03-08T07:16:26;7.03;;;5.32;;
21243;SDS011;10780;50.942;4.028;2023-03-08T07:18:52;7.38;;;5.47;;
21243;SDS011;10780;50.942;4.028;2023-03-08T07:21:18;9.02;;;5.47;;
21243;SDS011;10780;50.942;4.028;2023-03-08T07:23:43;7.88;;;6.03;;
21243;SDS011;10780;50.942;4.028;2023-03-08T07:26:09;9.57;;;5.70;;
21243;SDS011;10780;50.942;4.028;2023-03-08T07:28:35;6.93;;;5.68;;
21243;SDS011;10780;50.942;4.028;2023-03-08T07:31:01;7.95;;;5.88;;
21243;SDS011;10780;50.942;4.028;2023-03-08T07:33:27;6.57;;;5.93;;
21243;SDS011;10780;50.942;4.028;2023-03-08T07:35:58;6.82;;;5.47;;
21243;SDS011;10780;50.942;4.028;2023-03-08T07:38:25;7.65;;;5.53;;
21243;SDS011;10780;50.942;4.028;2023-03-08T07:40:54;6.82;;;5.22;;
21243;SDS011;10780;50.942;4.028;2023-03-08T07:43:21;7.45;;;6.00;;
21243;SDS011;10780;50.942;4.028;2023-03-08T07:45:47;7.53;;;5.97;;
21243;SDS011;10780;50.942;4.028;2023-03-08T07:48:12;10.05;;;6.13;;
21243;SDS011;10780;50.942;4.028;2023-03-08T07:50:38;8.68;;;6.05;;
21243;SDS011;10780;50.942;4.028;2023-03-08T07:53:04;8.07;;;6.18;;
21243;SDS011;10780;50.942;4.028;2023-03-08T07:55:32;7.57;;;5.78;;
21243;SDS011;10780;50.942;4.028;2023-03-08T07:57:58;7.20;;;5.78;;
21243;SDS011;10780;50.942;4.028;2023-03-08T08:00:24;7.55;;;5.78;;
21243;SDS011;10780;50.942;4.028;2023-03-08T08:02:50;6.45;;;5.53;;
21243;SDS011;10780;50.942;4.028;2023-03-08T08:05:18;7.90;;;6.05;;
21243;SDS011;10780;50.942;4.028;2023-03-08T08:07:46;6.75;;;6.07;;
21243;SDS011;10780;50.942;4.028;2023-03-08T08:10:12;6.88;;;5.85;;
21243;SDS011;10780;50.942;4.028;2023-03-08T08:12:38;8.52;;;6.18;;
21243;SDS011;10780;50.942;4.028;2023-03-08T08:15:03;7.32;;;5.68;;
21243;SDS011;10780;50.942;4.028;2023-03-08T08:17:29;7.70;;;5.55;;
21243;SDS011;10780;50.942;4.028;2023-03-08T08:19:55;8.45;;;6.40;;
21243;SDS011;10780;50.942;4.028;2023-03-08T08:22:21;7.00;;;5.90;;
21243;SDS011;10780;50.942;4.028;2023-03-08T08:24:47;8.45;;;5.93;;
21243;SDS011;10780;50.942;4.028;2023-03-08T08:27:13;7.50;;;5.80;;
21243;SDS011;10780;50.942;4.028;2023-03-08T08:29:39;7.80;;;5.65;;
21243;SDS011;10780;50.942;4.028;2023-03-08T08:32:05;7.32;;;5.53;;
21243;SDS011;10780;50.942;4.028;2023-03-08T08:34:31;8.23;;;6.20;;
21243;SDS011;10780;50.942;4.028;2023-03-08T08:36:58;7.20;;;5.47;;
21243;SDS011;10780;50.942;4.028;2023-03-08T08:39:23;6.57;;;5.18;;
21243;SDS011;10780;50.942;4.028;2023-03-08T08:41:49;7.95;;;5.13;;
21243;SDS011;10780;50.942;4.028;2023-03-08T08:44:15;5.80;;;4.60;;
21243;SDS011;10780;50.942;4.028;2023-03-08T08:46:41;5.40;;;4.50;;
21243;SDS011;10780;50.942;4.028;2023-03-08T08:49:07;6.32;;;5.10;;
21243;SDS011;10780;50.942;4.028;2023-03-08T08:51:33;7.00;;;5.00;;
21243;SDS011;10780;50.942;4.028;2023-03-08T08:53:59;6.07;;;4.78;;
21243;SDS011;10780;50.942;4.028;2023-03-08T08:56:25;5.03;;;4.43;;
21243;SDS011;10780;50.942;4.028;2023-03-08T08:58:52;6.20;;;5.07;;
21243;SDS011;10780;50.942;4.028;2023-03-08T09:01:20;5.90;;;4.70;;
21243;SDS011;10780;50.942;4.028;2023-03-08T09:03:47;5.88;;;4.65;;
21243;SDS011;10780;50.942;4.028;2023-03-08T09:06:14;6.00;;;5.40;;
21243;SDS011;10780;50.942;4.028;2023-03-08T09:08:43;5.57;;;5.07;;
21243;SDS011;10780;50.942;4.028;2023-03-08T09:11:10;5.55;;;5.03;;
21243;SDS011;10780;50.942;4.028;2023-03-08T09:13:36;5.72;;;5.22;;
21243;SDS011;10780;50.942;4.028;2023-03-08T09:16:04;7.00;;;6.30;;
21243;SDS011;10780;50.942;4.028;2023-03-08T09:18:41;5.65;;;4.88;;
21243;SDS011;10780;50.942;4.028;2023-03-08T09:21:08;5.25;;;4.75;;
21243;SDS011;10780;50.942;4.028;2023-03-08T09:23:34;5.50;;;5.00;;
21243;SDS011;10780;50.942;4.028;2023-03-08T09:26:00;7.00;;;4.95;;
21243;SDS011;10780;50.942;4.028;2023-03-08T09:28:28;7.50;;;5.20;;
21243;SDS011;10780;50.942;4.028;2023-03-08T09:30:54;6.88;;;5.05;;
21243;SDS011;10780;50.942;4.028;2023-03-08T09:33:20;5.80;;;4.22;;
21243;SDS011;10780;50.942;4.028;2023-03-08T09:35:54;4.70;;;4.25;;
21243;SDS011;10780;50.942;4.028;2023-03-08T09:38:20;6.43;;;4.38;;
21243;SDS011;10780;50.942;4.028;2023-03-08T09:41:04;6.20;;;5.13;;
21243;SDS011;10780;50.942;4.028;2023-03-08T09:46:54;5.25;;;4.75;;
21243;SDS011;10780;50.942;4.028;2023-03-08T09:49:26;4.95;;;4.30;;
21243;SDS011;10780;50.942;4.028;2023-03-08T09:52:07;5.43;;;4.82;;
21243;SDS011;10780;50.942;4.028;2023-03-08T09:54:41;5.45;;;4.95;;
21243;SDS011;10780;50.942;4.028;2023-03-08T09:57:19;6.20;;;5.00;;
21243;SDS011;10780;50.942;4.028;2023-03-08T09:59:53;6.40;;;4.70;;
21243;SDS011;10780;50.942;4.028;2023-03-08T10:02:45;6.38;;;5.53;;
21243;SDS011;10780;50.942;4.028;2023-03-08T10:05:23;5.10;;;4.60;;
21243;SDS011;10780;50.942;4.028;2023-03-08T10:10:48;5.75;;;4.93;;
21243;SDS011;10780;50.942;4.028;2023-03-08T10:13:40;5.22;;;4.72;;
21243;SDS011;10780;50.942;4.028;2023-03-08T10:16:27;5.47;;;4.45;;
21243;SDS011;10780;50.942;4.028;2023-03-08T10:21:43;4.93;;;4.50;;
21243;SDS011;10780;50.942;4.028;2023-03-08T10:27:17;5.20;;;4.68;;
21243;SDS011;10780;50.942;4.028;2023-03-08T10:29:48;5.55;;;4.93;;
21243;SDS011;10780;50.942;4.028;2023-03-08T10:32:17;5.68;;;5.13;;
21243;SDS011;10780;50.942;4.028;2023-03-08T10:34:44;5.78;;;5.00;;
21243;SDS011;10780;50.942;4.028;2023-03-08T10:37:10;6.13;;;4.60;;
21243;SDS011;10780;50.942;4.028;2023-03-08T10:39:36;6.18;;;5.05;;
21243;SDS011;10780;50.942;4.028;2023-03-08T10:42:25;7.07;;;5.18;;
21243;SDS011;10780;50.942;4.028;2023-03-08T10:44:57;5.95;;;5.35;;
21243;SDS011;10780;50.942;4.028;2023-03-08T10:47:32;6.47;;;5.25;;
21243;SDS011;10780;50.942;4.028;2023-03-08T10:50:19;5.82;;;5.32;;
21243;SDS011;10780;50.942;4.028;2023-03-08T10:52:47;5.88;;;5.28;;
21243;SDS011;10780;50.942;4.028;2023-03-08T10:55:19;6.18;;;5.57;;
21243;SDS011;10780;50.942;4.028;2023-03-08T11:03:15;6.75;;;5.55;;
21243;SDS011;10780;50.942;4.028;2023-03-08T11:08:29;7.38;;;6.32;;
21243;SDS011;10780;50.942;4.028;2023-03-08T11:11:07;7.88;;;6.00;;
21243;SDS011;10780;50.942;4.028;2023-03-08T11:13:38;8.45;;;6.82;;
21243;SDS011;10780;50.942;4.028;2023-03-08T11:16:17;9.23;;;6.85;;
21243;SDS011;10780;50.942;4.028;2023-03-08T11:27:37;7.88;;;6.70;;
21243;SDS011;10780;50.942;4.028;2023-03-08T11:29:58;8.40;;;6.70;;
21243;SDS011;10780;50.942;4.028;2023-03-08T11:32:33;9.98;;;7.63;;
21243;SDS011;10780;50.942;4.028;2023-03-08T11:46:21;12.73;;;8.77;;
21243;SDS011;10780;50.942;4.028;2023-03-08T11:48:56;9.90;;;8.13;;
21243;SDS011;10780;50.942;4.028;2023-03-08T11:52:16;10.88;;;8.07;;
21243;SDS011;10780;50.942;4.028;2023-03-08T11:54:23;11.68;;;8.63;;
21243;SDS011;10780;50.942;4.028;2023-03-08T11:56:54;11.52;;;9.02;;
21243;SDS011;10780;50.942;4.028;2023-03-08T12:01:51;13.43;;;9.95;;
21243;SDS011;10780;50.942;4.028;2023-03-08T12:05:08;12.82;;;10.20;;
21243;SDS011;10780;50.942;4.028;2023-03-08T12:07:23;15.60;;;10.65;;
21243;SDS011;10780;50.942;4.028;2023-03-08T12:12:29;13.88;;;10.73;;
21243;SDS011;10780;50.942;4.028;2023-03-08T12:17:53;13.93;;;10.57;;
21243;SDS011;10780;50.942;4.028;2023-03-08T12:20:27;15.32;;;11.00;;
21243;SDS011;10780;50.942;4.028;2023-03-08T12:25:37;15.20;;;11.20;;
21243;SDS011;10780;50.942;4.028;2023-03-08T12:28:11;15.10;;;11.90;;
21243;SDS011;10780;50.942;4.028;2023-03-08T12:30:45;15.85;;;11.70;;
21243;SDS011;10780;50.942;4.028;2023-03-08T12:33:28;19.58;;;12.23;;
21243;SDS011;10780;50.942;4.028;2023-03-08T12:40:56;18.08;;;12.13;;
21243;SDS011;10780;50.942;4.028;2023-03-08T12:46:02;16.33;;;11.77;;
21243;SDS011;10780;50.942;4.028;2023-03-08T12:53:39;17.08;;;12.70;;
21243;SDS011;10780;50.942;4.028;2023-03-08T12:58:38;17.58;;;12.48;;
21243;SDS011;10780;50.942;4.028;2023-03-08T13:04:25;18.10;;;12.93;;
21243;SDS011;10780;50.942;4.028;2023-03-08T13:14:44;19.17;;;13.55;;
21243;SDS011;10780;50.942;4.028;2023-03-08T13:20:07;20.20;;;12.77;;
21243;SDS011;10780;50.942;4.028;2023-03-08T13:22:40;21.38;;;13.70;;
21243;SDS011;10780;50.942;4.028;2023-03-08T13:27:59;19.83;;;13.18;;
21243;SDS011;10780;50.942;4.028;2023-03-08T13:30:41;22.15;;;13.77;;
21243;SDS011;10780;50.942;4.028;2023-03-08T13:33:35;21.73;;;14.05;;
21243;SDS011;10780;50.942;4.028;2023-03-08T13:36:12;21.48;;;14.25;;
21243;SDS011;10780;50.942;4.028;2023-03-08T13:38:38;21.88;;;13.75;;
21243;SDS011;10780;50.942;4.028;2023-03-08T13:41:05;22.15;;;14.18;;
21243;SDS011;10780;50.942;4.028;2023-03-08T13:43:31;22.45;;;13.82;;
21243;SDS011;10780;50.942;4.028;2023-03-08T13:45:59;25.20;;;15.75;;
21243;SDS011;10780;50.942;4.028;2023-03-08T13:48:29;23.73;;;15.23;;
21243;SDS011;10780;50.942;4.028;2023-03-08T13:50:57;22.85;;;14.70;;
21243;SDS011;10780;50.942;4.028;2023-03-08T13:53:25;21.67;;;14.60;;
21243;SDS011;10780;50.942;4.028;2023-03-08T13:55:53;23.90;;;15.50;;
21243;SDS011;10780;50.942;4.028;2023-03-08T13:58:29;22.50;;;15.18;;
21243;SDS011;10780;50.942;4.028;2023-03-08T14:03:37;22.90;;;15.05;;
21243;SDS011;10780;50.942;4.028;2023-03-08T14:08:52;25.33;;;16.75;;
21243;SDS011;10780;50.942;4.028;2023-03-08T14:14:03;24.27;;;15.35;;
21243;SDS011;10780;50.942;4.028;2023-03-08T14:16:34;24.17;;;15.43;;
21243;SDS011;10780;50.942;4.028;2023-03-08T14:19:22;23.52;;;15.10;;
21243;SDS011;10780;50.942;4.028;2023-03-08T14:21:56;24.20;;;15.05;;
21243;SDS011;10780;50.942;4.028;2023-03-08T14:24:27;25.65;;;15.48;;
21243;SDS011;10780;50.942;4.028;2023-03-08T14:26:59;24.73;;;15.95;;
21243;SDS011;10780;50.942;4.028;2023-03-08T14:29:25;27.15;;;15.65;;
21243;SDS011;10780;50.942;4.028;2023-03-08T14:31:57;28.70;;;17.25;;
21243;SDS011;10780;50.942;4.028;2023-03-08T14:34:47;25.70;;;16.30;;
21243;SDS011;10780;50.942;4.028;2023-03-08T14:39:50;27.52;;;17.95;;
21243;SDS011;10780;50.942;4.028;2023-03-08T14:42:26;26.10;;;16.85;;
21243;SDS011;10780;50.942;4.028;2023-03-08T14:45:05;24.17;;;15.60;;
21243;SDS011;10780;50.942;4.028;2023-03-08T14:47:54;23.85;;;15.75;;
21243;SDS011;10780;50.942;4.028;2023-03-08T14:50:26;22.70;;;15.13;;
21243;SDS011;10780;50.942;4.028;2023-03-08T14:52:57;24.05;;;15.73;;
21243;SDS011;10780;50.942;4.028;2023-03-08T14:55:25;28.35;;;16.73;;
21243;SDS011;10780;50.942;4.028;2023-03-08T14:57:52;25.10;;;16.25;;
21243;SDS011;10780;50.942;4.028;2023-03-08T15:00:20;23.27;;;14.13;;
21243;SDS011;10780;50.942;4.028;2023-03-08T15:02:46;21.42;;;14.90;;
21243;SDS011;10780;50.942;4.028;2023-03-08T15:05:13;25.88;;;16.27;;
21243;SDS011;10780;50.942;4.028;2023-03-08T15:07:40;23.95;;;14.95;;
21243;SDS011;10780;50.942;4.028;2023-03-08T15:10:06;24.52;;;15.43;;
21243;SDS011;10780;50.942;4.028;2023-03-08T15:12:37;22.80;;;14.20;;
21243;SDS011;10780;50.942;4.028;2023-03-08T15:15:08;24.30;;;14.77;;
21243;SDS011;10780;50.942;4.028;2023-03-08T15:17:38;25.50;;;15.02;;
21243;SDS011;10780;50.942;4.028;2023-03-08T15:20:04;25.02;;;15.63;;
21243;SDS011;10780;50.942;4.028;2023-03-08T15:22:30;24.83;;;14.75;;
21243;SDS011;10780;50.942;4.028;2023-03-08T15:24:58;24.00;;;14.43;;
21243;SDS011;10780;50.942;4.028;2023-03-08T15:27:24;24.13;;;14.85;;
21243;SDS011;10780;50.942;4.028;2023-03-08T15:29:50;25.35;;;14.63;;
21243;SDS011;10780;50.942;4.028;2023-03-08T15:32:15;23.55;;;14.70;;
21243;SDS011;10780;50.942;4.028;2023-03-08T15:34:41;25.35;;;15.90;;
21243;SDS011;10780;50.942;4.028;2023-03-08T15:37:08;25.92;;;16.23;;
21243;SDS011;10780;50.942;4.028;2023-03-08T15:39:38;23.05;;;15.13;;
21243;SDS011;10780;50.942;4.028;2023-03-08T15:42:03;26.27;;;16.65;;
21243;SDS011;10780;50.942;4.028;2023-03-08T15:44:29;27.23;;;16.98;;
21243;SDS011;10780;50.942;4.028;2023-03-08T15:46:55;27.65;;;16.35;;
21243;SDS011;10780;50.942;4.028;2023-03-08T15:49:21;27.85;;;16.65;;
21243;SDS011;10780;50.942;4.028;2023-03-08T15:51:47;28.80;;;16.70;;
21243;SDS011;10780;50.942;4.028;2023-03-08T15:54:12;31.33;;;16.90;;
21243;SDS011;10780;50.942;4.028;2023-03-08T15:56:38;26.75;;;16.08;;
21243;SDS011;10780;50.942;4.028;2023-03-08T15:59:03;28.65;;;16.35;;
21243;SDS011;10780;50.942;4.028;2023-03-08T16:01:29;28.58;;;16.85;;
21243;SDS011;10780;50.942;4.028;2023-03-08T16:03:57;24.80;;;16.15;;
21243;SDS011;10780;50.942;4.028;2023-03-08T16:06:23;27.90;;;15.80;;
21243;SDS011;10780;50.942;4.028;2023-03-08T16:08:48;28.48;;;15.88;;
21243;SDS011;10780;50.942;4.028;2023-03-08T16:11:15;28.85;;;16.20;;
21243;SDS011;10780;50.942;4.028;2023-03-08T16:13:46;28.52;;;15.68;;
21243;SDS011;10780;50.942;4.028;2023-03-08T16:16:14;29.20;;;16.58;;
21243;SDS011;10780;50.942;4.028;2023-03-08T16:18:39;26.27;;;16.15;;
21243;SDS011;10780;50.942;4.028;2023-03-08T16:21:06;26.88;;;16.02;;
21243;SDS011;10780;50.942;4.028;2023-03-08T16:23:33;28.85;;;15.60;;